sensor_id;sensor_type;location;lat;lon;timestamp;P1;durP1;ratioP1;P2;durP2;ratioP2
75216;SDS011;63800;51.972;5.682;2022-11-04T00:01:25;10.88;;;6.30;;
75216;SDS011;63800;51.972;5.682;2022-11-04T00:03:51;12.05;;;7.07;;
75216;SDS011;63800;51.972;5.682;2022-11-04T00:06:17;10.50;;;6.10;;
75216;SDS011;63800;51.972;5.682;2022-11-04T00:08:46;12.57;;;7.28;;
75216;SDS011;63800;51.972;5.682;2022-11-04T00:11:15;10.90;;;6.50;;
75216;SDS011;63800;51.972;5.682;2022-11-04T00:13:59;14.05;;;7.50;;
75216;SDS011;63800;51.972;5.682;2022-11-04T00:16:24;14.55;;;6.85;;
75216;SDS011;63800;51.972;5.682;2022-11-04T00:19:09;12.82;;;7.43;;
75216;SDS011;63800;51.972;5.682;2022-11-04T00:21:34;13.45;;;7.60;;
75216;SDS011;63800;51.972;5.682;2022-11-04T00:24:18;17.13;;;8.38;;
75216;SDS011;63800;51.972;5.682;2022-11-04T00:27:02;14.68;;;8.20;;
75216;SDS011;63800;51.972;5.682;2022-11-04T00:29:46;17.40;;;8.50;;
75216;SDS011;63800;51.972;5.682;2022-11-04T00:32:11;17.42;;;9.40;;
75216;SDS011;63800;51.972;5.682;2022-11-04T00:34:55;17.17;;;10.05;;
75216;SDS011;63800;51.972;5.682;2022-11-04T00:37:21;20.52;;;11.05;;
75216;SDS011;63800;51.972;5.682;2022-11-04T00:39:47;17.42;;;10.40;;
75216;SDS011;63800;51.972;5.682;2022-11-04T00:42:12;13.35;;;8.10;;
75216;SDS011;63800;51.972;5.682;2022-11-04T00:44:38;10.27;;;6.20;;
75216;SDS011;63800;51.972;5.682;2022-11-04T00:47:03;11.23;;;6.20;;
75216;SDS011;63800;51.972;5.682;2022-11-04T00:49:29;10.38;;;6.00;;
75216;SDS011;63800;51.972;5.682;2022-11-04T00:51:54;5.05;;;3.28;;
75216;SDS011;63800;51.972;5.682;2022-11-04T00:54:20;4.35;;;2.40;;
75216;SDS011;63800;51.972;5.682;2022-11-04T00:56:45;3.30;;;2.22;;
75216;SDS011;63800;51.972;5.682;2022-11-04T00:59:12;2.28;;;1.83;;
75216;SDS011;63800;51.972;5.682;2022-11-04T01:01:39;1.58;;;1.42;;
75216;SDS011;63800;51.972;5.682;2022-11-04T01:04:05;1.92;;;1.75;;
75216;SDS011;63800;51.972;5.682;2022-11-04T01:06:30;1.48;;;1.33;;
75216;SDS011;63800;51.972;5.682;2022-11-04T01:08:57;1.00;;;0.90;;
75216;SDS011;63800;51.972;5.682;2022-11-04T01:11:24;1.08;;;0.88;;
75216;SDS011;63800;51.972;5.682;2022-11-04T01:13:52;1.70;;;1.10;;
75216;SDS011;63800;51.972;5.682;2022-11-04T01:16:18;1.52;;;0.93;;
75216;SDS011;63800;51.972;5.682;2022-11-04T01:18:44;1.17;;;1.02;;
75216;SDS011;63800;51.972;5.682;2022-11-04T01:21:10;1.00;;;0.90;;
75216;SDS011;63800;51.972;5.682;2022-11-04T01:23:37;3.53;;;0.93;;
75216;SDS011;63800;51.972;5.682;2022-11-04T01:26:08;1.50;;;1.00;;
75216;SDS011;63800;51.972;5.682;2022-11-04T01:28:41;0.98;;;0.85;;
75216;SDS011;63800;51.972;5.682;2022-11-04T01:31:10;1.88;;;1.08;;
75216;SDS011;63800;51.972;5.682;2022-11-04T01:33:38;1.42;;;1.15;;
75216;SDS011;63800;51.972;5.682;2022-11-04T01:36:04;2.28;;;1.00;;
75216;SDS011;63800;51.972;5.682;2022-11-04T01:38:31;2.35;;;1.45;;
75216;SDS011;63800;51.972;5.682;2022-11-04T01:40:56;1.73;;;1.45;;
75216;SDS011;63800;51.972;5.682;2022-11-04T01:43:23;4.22;;;2.00;;
75216;SDS011;63800;51.972;5.682;2022-11-04T01:46:30;2.63;;;1.98;;
75216;SDS011;63800;51.972;5.682;2022-11-04T01:49:03;4.30;;;2.75;;
75216;SDS011;63800;51.972;5.682;2022-11-04T01:51:47;7.57;;;3.40;;
75216;SDS011;63800;51.972;5.682;2022-11-04T01:54:14;6.53;;;3.58;;
75216;SDS011;63800;51.972;5.682;2022-11-04T01:56:40;7.35;;;4.43;;
75216;SDS011;63800;51.972;5.682;2022-11-04T01:59:08;8.13;;;4.57;;
75216;SDS011;63800;51.972;5.682;2022-11-04T02:01:40;9.80;;;5.70;;
75216;SDS011;63800;51.972;5.682;2022-11-04T02:04:07;11.23;;;6.00;;
75216;SDS011;63800;51.972;5.682;2022-11-04T02:06:49;10.57;;;6.28;;
75216;SDS011;63800;51.972;5.682;2022-11-04T02:09:16;11.70;;;6.50;;
75216;SDS011;63800;51.972;5.682;2022-11-04T02:11:43;11.13;;;6.75;;
75216;SDS011;63800;51.972;5.682;2022-11-04T02:14:28;12.45;;;6.80;;
75216;SDS011;63800;51.972;5.682;2022-11-04T02:16:54;13.00;;;7.18;;
75216;SDS011;63800;51.972;5.682;2022-11-04T02:30:13;17.95;;;9.75;;
75216;SDS011;63800;51.972;5.682;2022-11-04T02:35:25;20.08;;;11.15;;
75216;SDS011;63800;51.972;5.682;2022-11-04T02:38:06;21.60;;;11.35;;
75216;SDS011;63800;51.972;5.682;2022-11-04T02:45:41;29.98;;;14.57;;
75216;SDS011;63800;51.972;5.682;2022-11-04T02:48:09;24.77;;;13.02;;
75216;SDS011;63800;51.972;5.682;2022-11-04T02:53:36;28.20;;;14.07;;
75216;SDS011;63800;51.972;5.682;2022-11-04T02:56:06;30.70;;;14.95;;
75216;SDS011;63800;51.972;5.682;2022-11-04T02:58:35;26.17;;;14.23;;
75216;SDS011;63800;51.972;5.682;2022-11-04T03:01:05;30.95;;;15.70;;
75216;SDS011;63800;51.972;5.682;2022-11-04T03:03:34;28.63;;;14.73;;
75216;SDS011;63800;51.972;5.682;2022-11-04T03:06:04;32.28;;;16.05;;
75216;SDS011;63800;51.972;5.682;2022-11-04T03:08:34;34.83;;;17.45;;
75216;SDS011;63800;51.972;5.682;2022-11-04T03:11:05;31.60;;;16.55;;
75216;SDS011;63800;51.972;5.682;2022-11-04T03:13:35;38.42;;;18.65;;
75216;SDS011;63800;51.972;5.682;2022-11-04T03:16:07;35.55;;;17.48;;
75216;SDS011;63800;51.972;5.682;2022-11-04T03:21:58;34.20;;;17.73;;
75216;SDS011;63800;51.972;5.682;2022-11-04T03:24:28;34.55;;;17.38;;
75216;SDS011;63800;51.972;5.682;2022-11-04T03:26:57;32.88;;;17.88;;
75216;SDS011;63800;51.972;5.682;2022-11-04T03:35:16;35.72;;;17.90;;
75216;SDS011;63800;51.972;5.682;2022-11-04T03:37:43;35.58;;;17.88;;
75216;SDS011;63800;51.972;5.682;2022-11-04T03:40:11;33.28;;;17.85;;
75216;SDS011;63800;51.972;5.682;2022-11-04T03:42:39;33.03;;;17.20;;
75216;SDS011;63800;51.972;5.682;2022-11-04T03:45:09;36.33;;;18.23;;
75216;SDS011;63800;51.972;5.682;2022-11-04T03:47:36;30.95;;;17.42;;
75216;SDS011;63800;51.972;5.682;2022-11-04T03:50:12;28.63;;;15.98;;
75216;SDS011;63800;51.972;5.682;2022-11-04T03:52:49;30.08;;;14.60;;
75216;SDS011;63800;51.972;5.682;2022-11-04T03:55:15;31.45;;;16.33;;
75216;SDS011;63800;51.972;5.682;2022-11-04T04:00:28;27.73;;;14.18;;
75216;SDS011;63800;51.972;5.682;2022-11-04T04:08:11;26.92;;;13.85;;
75216;SDS011;63800;51.972;5.682;2022-11-04T04:11:06;22.38;;;12.75;;
75216;SDS011;63800;51.972;5.682;2022-11-04T04:13:52;20.10;;;11.38;;
75216;SDS011;63800;51.972;5.682;2022-11-04T04:16:29;19.38;;;10.10;;
75216;SDS011;63800;51.972;5.682;2022-11-04T04:19:09;18.13;;;10.23;;
75216;SDS011;63800;51.972;5.682;2022-11-04T04:21:42;17.60;;;10.35;;
75216;SDS011;63800;51.972;5.682;2022-11-04T04:24:16;16.75;;;9.45;;
75216;SDS011;63800;51.972;5.682;2022-11-04T04:27:02;14.05;;;8.98;;
75216;SDS011;63800;51.972;5.682;2022-11-04T04:29:47;18.17;;;8.70;;
75216;SDS011;63800;51.972;5.682;2022-11-04T04:32:14;18.08;;;9.27;;
75216;SDS011;63800;51.972;5.682;2022-11-04T04:34:41;13.80;;;8.70;;
75216;SDS011;63800;51.972;5.682;2022-11-04T04:37:28;13.20;;;8.25;;
75216;SDS011;63800;51.972;5.682;2022-11-04T04:39:53;16.02;;;8.98;;
75216;SDS011;63800;51.972;5.682;2022-11-04T04:42:41;16.55;;;9.50;;
75216;SDS011;63800;51.972;5.682;2022-11-04T04:45:30;18.27;;;9.60;;
75216;SDS011;63800;51.972;5.682;2022-11-04T04:47:58;16.85;;;9.80;;
75216;SDS011;63800;51.972;5.682;2022-11-04T04:50:25;14.43;;;9.55;;
75216;SDS011;63800;51.972;5.682;2022-11-04T04:52:55;15.05;;;9.07;;
75216;SDS011;63800;51.972;5.682;2022-11-04T04:55:21;17.45;;;8.98;;
75216;SDS011;63800;51.972;5.682;2022-11-04T04:57:47;14.13;;;7.75;;
75216;SDS011;63800;51.972;5.682;2022-11-04T05:00:14;14.00;;;7.05;;
75216;SDS011;63800;51.972;5.682;2022-11-04T05:02:41;14.82;;;6.85;;
75216;SDS011;63800;51.972;5.682;2022-11-04T05:05:07;12.48;;;7.20;;
75216;SDS011;63800;51.972;5.682;2022-11-04T05:07:33;12.63;;;7.32;;
75216;SDS011;63800;51.972;5.682;2022-11-04T05:09:58;11.10;;;7.07;;
75216;SDS011;63800;51.972;5.682;2022-11-04T05:12:24;13.25;;;7.38;;
75216;SDS011;63800;51.972;5.682;2022-11-04T05:14:49;13.95;;;6.00;;
75216;SDS011;63800;51.972;5.682;2022-11-04T05:17:15;12.57;;;6.97;;
75216;SDS011;63800;51.972;5.682;2022-11-04T05:19:40;13.93;;;6.50;;
75216;SDS011;63800;51.972;5.682;2022-11-04T05:22:06;12.73;;;6.03;;
75216;SDS011;63800;51.972;5.682;2022-11-04T05:24:31;12.10;;;6.22;;
75216;SDS011;63800;51.972;5.682;2022-11-04T05:26:56;8.98;;;5.65;;
75216;SDS011;63800;51.972;5.682;2022-11-04T05:29:22;12.45;;;5.95;;
75216;SDS011;63800;51.972;5.682;2022-11-04T05:31:47;10.82;;;5.63;;
75216;SDS011;63800;51.972;5.682;2022-11-04T05:34:13;10.68;;;5.47;;
75216;SDS011;63800;51.972;5.682;2022-11-04T05:36:39;11.18;;;5.60;;
75216;SDS011;63800;51.972;5.682;2022-11-04T05:39:05;12.18;;;5.88;;
75216;SDS011;63800;51.972;5.682;2022-11-04T05:41:31;10.60;;;5.53;;
75216;SDS011;63800;51.972;5.682;2022-11-04T05:43:58;10.10;;;5.25;;
75216;SDS011;63800;51.972;5.682;2022-11-04T05:46:25;11.73;;;5.70;;
75216;SDS011;63800;51.972;5.682;2022-11-04T05:48:51;10.85;;;5.32;;
75216;SDS011;63800;51.972;5.682;2022-11-04T05:51:19;10.73;;;5.57;;
75216;SDS011;63800;51.972;5.682;2022-11-04T05:53:46;11.68;;;5.13;;
75216;SDS011;63800;51.972;5.682;2022-11-04T05:56:12;10.57;;;4.88;;
75216;SDS011;63800;51.972;5.682;2022-11-04T05:58:38;10.40;;;5.65;;
75216;SDS011;63800;51.972;5.682;2022-11-04T06:01:37;9.93;;;4.97;;
75216;SDS011;63800;51.972;5.682;2022-11-04T06:04:00;9.70;;;4.28;;
75216;SDS011;63800;51.972;5.682;2022-11-04T06:06:28;8.65;;;4.50;;
75216;SDS011;63800;51.972;5.682;2022-11-04T06:08:56;9.10;;;4.40;;
75216;SDS011;63800;51.972;5.682;2022-11-04T06:11:22;9.73;;;4.97;;
75216;SDS011;63800;51.972;5.682;2022-11-04T06:13:49;9.77;;;4.38;;
75216;SDS011;63800;51.972;5.682;2022-11-04T06:16:14;9.60;;;4.10;;
75216;SDS011;63800;51.972;5.682;2022-11-04T06:18:40;8.68;;;4.25;;
75216;SDS011;63800;51.972;5.682;2022-11-04T06:21:06;8.55;;;4.28;;
75216;SDS011;63800;51.972;5.682;2022-11-04T06:23:33;7.35;;;3.90;;
75216;SDS011;63800;51.972;5.682;2022-11-04T06:25:58;10.40;;;4.78;;
75216;SDS011;63800;51.972;5.682;2022-11-04T06:28:23;8.63;;;4.18;;
75216;SDS011;63800;51.972;5.682;2022-11-04T06:30:49;9.68;;;4.20;;
75216;SDS011;63800;51.972;5.682;2022-11-04T06:33:14;11.30;;;5.60;;
75216;SDS011;63800;51.972;5.682;2022-11-04T06:35:39;10.25;;;5.82;;
75216;SDS011;63800;51.972;5.682;2022-11-04T06:38:05;11.35;;;7.35;;
75216;SDS011;63800;51.972;5.682;2022-11-04T06:40:30;15.35;;;9.60;;
75216;SDS011;63800;51.972;5.682;2022-11-04T06:42:55;12.43;;;7.32;;
75216;SDS011;63800;51.972;5.682;2022-11-04T06:45:21;13.95;;;7.10;;
75216;SDS011;63800;51.972;5.682;2022-11-04T06:47:46;20.33;;;11.52;;
75216;SDS011;63800;51.972;5.682;2022-11-04T06:50:12;17.30;;;9.55;;
75216;SDS011;63800;51.972;5.682;2022-11-04T06:52:38;16.80;;;9.43;;
75216;SDS011;63800;51.972;5.682;2022-11-04T06:55:04;16.60;;;9.10;;
75216;SDS011;63800;51.972;5.682;2022-11-04T06:57:30;15.77;;;8.48;;
75216;SDS011;63800;51.972;5.682;2022-11-04T06:59:55;16.55;;;7.18;;
75216;SDS011;63800;51.972;5.682;2022-11-04T07:02:21;12.13;;;7.07;;
75216;SDS011;63800;51.972;5.682;2022-11-04T07:04:46;14.25;;;7.93;;
75216;SDS011;63800;51.972;5.682;2022-11-04T07:07:11;13.23;;;7.28;;
75216;SDS011;63800;51.972;5.682;2022-11-04T07:09:37;14.20;;;7.50;;
75216;SDS011;63800;51.972;5.682;2022-11-04T07:12:02;14.65;;;6.45;;
75216;SDS011;63800;51.972;5.682;2022-11-04T07:14:28;14.50;;;7.50;;
75216;SDS011;63800;51.972;5.682;2022-11-04T07:16:53;13.32;;;6.78;;
75216;SDS011;63800;51.972;5.682;2022-11-04T07:19:19;23.33;;;11.50;;
75216;SDS011;63800;51.972;5.682;2022-11-04T07:21:44;18.17;;;8.25;;
75216;SDS011;63800;51.972;5.682;2022-11-04T07:24:09;14.00;;;7.30;;
75216;SDS011;63800;51.972;5.682;2022-11-04T07:26:35;14.50;;;6.93;;
75216;SDS011;63800;51.972;5.682;2022-11-04T07:29:00;10.90;;;6.13;;
75216;SDS011;63800;51.972;5.682;2022-11-04T07:31:26;9.90;;;4.40;;
75216;SDS011;63800;51.972;5.682;2022-11-04T07:33:52;6.70;;;3.67;;
75216;SDS011;63800;51.972;5.682;2022-11-04T07:36:18;6.90;;;4.22;;
75216;SDS011;63800;51.972;5.682;2022-11-04T07:38:44;11.25;;;4.40;;
75216;SDS011;63800;51.972;5.682;2022-11-04T07:41:10;7.93;;;3.72;;
75216;SDS011;63800;51.972;5.682;2022-11-04T07:43:36;8.82;;;3.95;;
75216;SDS011;63800;51.972;5.682;2022-11-04T07:46:06;10.48;;;4.25;;
75216;SDS011;63800;51.972;5.682;2022-11-04T07:48:35;12.65;;;5.03;;
75216;SDS011;63800;51.972;5.682;2022-11-04T07:51:00;10.48;;;4.50;;
75216;SDS011;63800;51.972;5.682;2022-11-04T07:53:27;9.77;;;4.15;;
75216;SDS011;63800;51.972;5.682;2022-11-04T07:55:54;7.40;;;4.38;;
75216;SDS011;63800;51.972;5.682;2022-11-04T07:58:20;10.57;;;5.80;;
75216;SDS011;63800;51.972;5.682;2022-11-04T08:00:46;16.35;;;6.57;;
75216;SDS011;63800;51.972;5.682;2022-11-04T08:03:11;13.52;;;6.30;;
75216;SDS011;63800;51.972;5.682;2022-11-04T08:05:37;9.55;;;5.13;;
75216;SDS011;63800;51.972;5.682;2022-11-04T08:08:03;10.82;;;4.80;;
75216;SDS011;63800;51.972;5.682;2022-11-04T08:10:28;10.75;;;4.60;;
75216;SDS011;63800;51.972;5.682;2022-11-04T08:12:54;7.13;;;4.15;;
75216;SDS011;63800;51.972;5.682;2022-11-04T08:15:19;9.88;;;4.35;;
75216;SDS011;63800;51.972;5.682;2022-11-04T08:17:44;7.72;;;4.60;;
75216;SDS011;63800;51.972;5.682;2022-11-04T08:20:10;12.30;;;5.55;;
75216;SDS011;63800;51.972;5.682;2022-11-04T08:22:36;8.13;;;4.45;;
75216;SDS011;63800;51.972;5.682;2022-11-04T08:25:01;9.55;;;4.97;;
75216;SDS011;63800;51.972;5.682;2022-11-04T08:27:27;8.60;;;5.22;;
75216;SDS011;63800;51.972;5.682;2022-11-04T08:29:52;13.15;;;6.07;;
75216;SDS011;63800;51.972;5.682;2022-11-04T08:32:18;11.00;;;5.43;;
75216;SDS011;63800;51.972;5.682;2022-11-04T08:34:43;9.10;;;5.20;;
75216;SDS011;63800;51.972;5.682;2022-11-04T08:37:12;11.88;;;5.22;;
75216;SDS011;63800;51.972;5.682;2022-11-04T08:39:39;10.80;;;4.20;;
75216;SDS011;63800;51.972;5.682;2022-11-04T08:42:04;11.35;;;4.57;;
75216;SDS011;63800;51.972;5.682;2022-11-04T08:44:30;9.55;;;5.25;;
75216;SDS011;63800;51.972;5.682;2022-11-04T08:46:55;14.23;;;6.03;;
75216;SDS011;63800;51.972;5.682;2022-11-04T08:49:21;12.02;;;6.60;;
75216;SDS011;63800;51.972;5.682;2022-11-04T08:51:46;11.50;;;6.57;;
75216;SDS011;63800;51.972;5.682;2022-11-04T08:54:18;10.93;;;6.57;;
75216;SDS011;63800;51.972;5.682;2022-11-04T08:56:44;14.63;;;6.10;;
75216;SDS011;63800;51.972;5.682;2022-11-04T08:59:09;10.13;;;5.82;;
75216;SDS011;63800;51.972;5.682;2022-11-04T09:01:35;10.35;;;5.72;;
75216;SDS011;63800;51.972;5.682;2022-11-04T09:04:01;12.40;;;5.40;;
75216;SDS011;63800;51.972;5.682;2022-11-04T09:06:35;11.48;;;5.43;;
75216;SDS011;63800;51.972;5.682;2022-11-04T09:09:02;8.50;;;4.80;;
75216;SDS011;63800;51.972;5.682;2022-11-04T09:11:30;10.75;;;5.35;;
75216;SDS011;63800;51.972;5.682;2022-11-04T09:13:58;8.95;;;5.10;;
75216;SDS011;63800;51.972;5.682;2022-11-04T09:16:25;14.55;;;6.25;;
75216;SDS011;63800;51.972;5.682;2022-11-04T09:18:51;12.05;;;5.57;;
75216;SDS011;63800;51.972;5.682;2022-11-04T09:21:16;8.77;;;5.18;;
75216;SDS011;63800;51.972;5.682;2022-11-04T09:23:41;14.65;;;7.10;;
75216;SDS011;63800;51.972;5.682;2022-11-04T09:26:08;15.88;;;6.82;;
75216;SDS011;63800;51.972;5.682;2022-11-04T09:28:37;12.30;;;6.95;;
75216;SDS011;63800;51.972;5.682;2022-11-04T09:31:08;10.23;;;6.25;;
75216;SDS011;63800;51.972;5.682;2022-11-04T09:33:35;12.15;;;5.90;;
75216;SDS011;63800;51.972;5.682;2022-11-04T09:36:01;9.82;;;5.47;;
75216;SDS011;63800;51.972;5.682;2022-11-04T09:38:27;11.52;;;5.90;;
75216;SDS011;63800;51.972;5.682;2022-11-04T09:40:53;13.48;;;5.72;;
75216;SDS011;63800;51.972;5.682;2022-11-04T09:43:31;16.33;;;6.70;;
75216;SDS011;63800;51.972;5.682;2022-11-04T09:46:11;13.52;;;6.82;;
75216;SDS011;63800;51.972;5.682;2022-11-04T09:48:43;13.13;;;6.97;;
75216;SDS011;63800;51.972;5.682;2022-11-04T09:51:12;12.68;;;7.10;;
75216;SDS011;63800;51.972;5.682;2022-11-04T09:53:48;13.15;;;7.07;;
75216;SDS011;63800;51.972;5.682;2022-11-04T09:58:46;13.35;;;7.97;;
75216;SDS011;63800;51.972;5.682;2022-11-04T10:23:21;14.95;;;9.57;;
75216;SDS011;63800;51.972;5.682;2022-11-04T10:26:09;20.02;;;10.63;;
75216;SDS011;63800;51.972;5.682;2022-11-04T10:29:02;20.92;;;11.70;;
75216;SDS011;63800;51.972;5.682;2022-11-04T10:31:29;18.88;;;10.73;;
75216;SDS011;63800;51.972;5.682;2022-11-04T10:33:59;18.73;;;10.57;;
75216;SDS011;63800;51.972;5.682;2022-11-04T10:36:32;21.63;;;10.95;;
75216;SDS011;63800;51.972;5.682;2022-11-04T10:39:00;18.38;;;11.77;;
75216;SDS011;63800;51.972;5.682;2022-11-04T10:41:30;20.65;;;11.48;;
75216;SDS011;63800;51.972;5.682;2022-11-04T10:51:44;18.23;;;11.00;;
75216;SDS011;63800;51.972;5.682;2022-11-04T10:54:10;22.23;;;12.98;;
75216;SDS011;63800;51.972;5.682;2022-11-04T10:56:40;19.00;;;11.95;;
75216;SDS011;63800;51.972;5.682;2022-11-04T11:01:59;21.60;;;12.20;;
75216;SDS011;63800;51.972;5.682;2022-11-04T11:06:57;20.30;;;12.02;;
75216;SDS011;63800;51.972;5.682;2022-11-04T11:09:25;31.05;;;15.13;;
75216;SDS011;63800;51.972;5.682;2022-11-04T11:11:58;28.17;;;15.48;;
75216;SDS011;63800;51.972;5.682;2022-11-04T11:16:55;23.05;;;13.45;;
75216;SDS011;63800;51.972;5.682;2022-11-04T11:19:23;21.70;;;12.27;;
75216;SDS011;63800;51.972;5.682;2022-11-04T11:21:55;19.83;;;12.07;;
75216;SDS011;63800;51.972;5.682;2022-11-04T11:24:22;19.52;;;12.00;;
75216;SDS011;63800;51.972;5.682;2022-11-04T11:26:56;22.17;;;12.70;;
75216;SDS011;63800;51.972;5.682;2022-11-04T11:29:25;21.60;;;12.50;;
75216;SDS011;63800;51.972;5.682;2022-11-04T11:31:53;17.55;;;12.05;;
75216;SDS011;63800;51.972;5.682;2022-11-04T11:37:01;21.38;;;10.75;;
75216;SDS011;63800;51.972;5.682;2022-11-04T11:39:29;16.55;;;10.38;;
75216;SDS011;63800;51.972;5.682;2022-11-04T11:41:58;17.92;;;10.98;;
75216;SDS011;63800;51.972;5.682;2022-11-04T11:44:36;19.30;;;11.13;;
75216;SDS011;63800;51.972;5.682;2022-11-04T11:52:41;18.83;;;10.40;;
75216;SDS011;63800;51.972;5.682;2022-11-04T12:00:35;18.80;;;10.95;;
75216;SDS011;63800;51.972;5.682;2022-11-04T12:03:13;21.30;;;11.13;;
75216;SDS011;63800;51.972;5.682;2022-11-04T12:10:59;21.60;;;11.00;;
75216;SDS011;63800;51.972;5.682;2022-11-04T12:13:40;20.23;;;11.10;;
75216;SDS011;63800;51.972;5.682;2022-11-04T12:34:56;23.75;;;12.20;;
75216;SDS011;63800;51.972;5.682;2022-11-04T12:47:03;17.90;;;11.13;;
75216;SDS011;63800;51.972;5.682;2022-11-04T12:57:51;17.40;;;11.25;;
75216;SDS011;63800;51.972;5.682;2022-11-04T13:00:24;16.98;;;11.50;;
75216;SDS011;63800;51.972;5.682;2022-11-04T13:03:07;18.40;;;11.45;;
75216;SDS011;63800;51.972;5.682;2022-11-04T13:08:33;21.48;;;10.65;;
75216;SDS011;63800;51.972;5.682;2022-11-04T13:13:50;20.80;;;10.93;;
75216;SDS011;63800;51.972;5.682;2022-11-04T13:16:19;24.33;;;10.57;;
75216;SDS011;63800;51.972;5.682;2022-11-04T13:18:45;18.08;;;10.93;;
75216;SDS011;63800;51.972;5.682;2022-11-04T13:21:15;20.38;;;10.95;;
75216;SDS011;63800;51.972;5.682;2022-11-04T13:23:47;19.02;;;10.85;;
75216;SDS011;63800;51.972;5.682;2022-11-04T13:26:24;18.80;;;12.05;;
75216;SDS011;63800;51.972;5.682;2022-11-04T13:28:55;16.77;;;10.98;;
75216;SDS011;63800;51.972;5.682;2022-11-04T13:34:22;16.48;;;9.98;;
75216;SDS011;63800;51.972;5.682;2022-11-04T13:39:30;18.48;;;10.98;;
75216;SDS011;63800;51.972;5.682;2022-11-04T13:42:19;22.15;;;11.02;;
75216;SDS011;63800;51.972;5.682;2022-11-04T13:45:12;16.33;;;10.07;;
75216;SDS011;63800;51.972;5.682;2022-11-04T13:47:47;18.00;;;10.52;;
75216;SDS011;63800;51.972;5.682;2022-11-04T13:50:40;16.50;;;10.40;;
75216;SDS011;63800;51.972;5.682;2022-11-04T13:53:06;17.00;;;11.00;;
75216;SDS011;63800;51.972;5.682;2022-11-04T13:55:35;18.30;;;10.52;;
75216;SDS011;63800;51.972;5.682;2022-11-04T13:58:22;17.40;;;10.52;;
75216;SDS011;63800;51.972;5.682;2022-11-04T14:04:00;19.60;;;10.10;;
75216;SDS011;63800;51.972;5.682;2022-11-04T14:06:46;20.67;;;11.25;;
75216;SDS011;63800;51.972;5.682;2022-11-04T14:09:31;20.88;;;10.95;;
75216;SDS011;63800;51.972;5.682;2022-11-04T14:14:45;17.90;;;10.77;;
75216;SDS011;63800;51.972;5.682;2022-11-04T14:19:59;16.77;;;10.95;;
75216;SDS011;63800;51.972;5.682;2022-11-04T14:22:36;16.55;;;10.57;;
75216;SDS011;63800;51.972;5.682;2022-11-04T14:30:44;17.95;;;10.43;;
75216;SDS011;63800;51.972;5.682;2022-11-04T14:34:00;17.90;;;11.23;;
75216;SDS011;63800;51.972;5.682;2022-11-04T14:38:46;7.55;;;4.10;;
75216;SDS011;63800;51.972;5.682;2022-11-04T14:43:53;4.65;;;2.53;;
75216;SDS011;63800;51.972;5.682;2022-11-04T14:46:21;2.30;;;1.60;;
75216;SDS011;63800;51.972;5.682;2022-11-04T14:48:53;3.40;;;1.70;;
75216;SDS011;63800;51.972;5.682;2022-11-04T14:51:30;2.13;;;1.65;;
75216;SDS011;63800;51.972;5.682;2022-11-04T14:56:29;1.55;;;1.10;;
75216;SDS011;63800;51.972;5.682;2022-11-04T14:59:04;2.38;;;1.40;;
75216;SDS011;63800;51.972;5.682;2022-11-04T15:01:37;2.92;;;1.38;;
75216;SDS011;63800;51.972;5.682;2022-11-04T15:04:05;2.10;;;1.50;;
75216;SDS011;63800;51.972;5.682;2022-11-04T15:06:36;3.58;;;2.25;;
75216;SDS011;63800;51.972;5.682;2022-11-04T15:09:02;2.42;;;1.80;;
75216;SDS011;63800;51.972;5.682;2022-11-04T15:11:28;2.97;;;1.80;;
75216;SDS011;63800;51.972;5.682;2022-11-04T15:14:21;2.53;;;1.90;;
75216;SDS011;63800;51.972;5.682;2022-11-04T15:16:52;4.53;;;2.45;;
75216;SDS011;63800;51.972;5.682;2022-11-04T15:21:53;5.82;;;2.15;;
75216;SDS011;63800;51.972;5.682;2022-11-04T15:24:19;3.42;;;1.98;;
75216;SDS011;63800;51.972;5.682;2022-11-04T15:26:52;2.53;;;2.25;;
75216;SDS011;63800;51.972;5.682;2022-11-04T15:29:20;4.03;;;2.20;;
75216;SDS011;63800;51.972;5.682;2022-11-04T15:31:55;4.65;;;2.17;;
75216;SDS011;63800;51.972;5.682;2022-11-04T15:34:25;3.13;;;2.08;;
75216;SDS011;63800;51.972;5.682;2022-11-04T15:36:53;2.67;;;1.90;;
75216;SDS011;63800;51.972;5.682;2022-11-04T15:39:27;4.32;;;2.05;;
75216;SDS011;63800;51.972;5.682;2022-11-04T15:44:50;6.68;;;2.35;;
75216;SDS011;63800;51.972;5.682;2022-11-04T15:49:44;3.55;;;2.35;;
75216;SDS011;63800;51.972;5.682;2022-11-04T15:52:12;5.30;;;2.78;;
75216;SDS011;63800;51.972;5.682;2022-11-04T15:54:40;4.70;;;2.35;;
75216;SDS011;63800;51.972;5.682;2022-11-04T15:57:12;4.95;;;2.38;;
75216;SDS011;63800;51.972;5.682;2022-11-04T15:59:44;4.45;;;2.60;;
75216;SDS011;63800;51.972;5.682;2022-11-04T16:02:32;5.72;;;2.97;;
75216;SDS011;63800;51.972;5.682;2022-11-04T16:05:26;4.63;;;2.70;;
75216;SDS011;63800;51.972;5.682;2022-11-04T16:08:20;4.10;;;2.83;;
75216;SDS011;63800;51.972;5.682;2022-11-04T16:10:48;5.28;;;2.88;;
75216;SDS011;63800;51.972;5.682;2022-11-04T16:23:57;5.82;;;3.20;;
75216;SDS011;63800;51.972;5.682;2022-11-04T16:26:26;5.80;;;3.55;;
75216;SDS011;63800;51.972;5.682;2022-11-04T16:28:56;7.05;;;3.47;;
75216;SDS011;63800;51.972;5.682;2022-11-04T16:31:28;7.43;;;4.10;;
75216;SDS011;63800;51.972;5.682;2022-11-04T16:33:57;7.88;;;3.88;;
75216;SDS011;63800;51.972;5.682;2022-11-04T16:36:23;8.98;;;4.00;;
75216;SDS011;63800;51.972;5.682;2022-11-04T16:38:55;6.78;;;3.55;;
75216;SDS011;63800;51.972;5.682;2022-11-04T16:41:28;5.38;;;3.78;;
75216;SDS011;63800;51.972;5.682;2022-11-04T16:43:56;8.38;;;4.65;;
75216;SDS011;63800;51.972;5.682;2022-11-04T16:46:21;7.35;;;4.82;;
75216;SDS011;63800;51.972;5.682;2022-11-04T16:48:47;8.95;;;5.18;;
75216;SDS011;63800;51.972;5.682;2022-11-04T16:51:17;6.63;;;5.05;;
75216;SDS011;63800;51.972;5.682;2022-11-04T16:53:48;8.60;;;5.13;;
75216;SDS011;63800;51.972;5.682;2022-11-04T16:56:15;9.75;;;5.38;;
75216;SDS011;63800;51.972;5.682;2022-11-04T16:58:42;6.47;;;5.35;;
75216;SDS011;63800;51.972;5.682;2022-11-04T17:01:10;8.32;;;5.15;;
75216;SDS011;63800;51.972;5.682;2022-11-04T17:03:37;10.48;;;6.03;;
75216;SDS011;63800;51.972;5.682;2022-11-04T17:06:02;8.45;;;6.38;;
75216;SDS011;63800;51.972;5.682;2022-11-04T17:08:28;9.93;;;5.97;;
75216;SDS011;63800;51.972;5.682;2022-11-04T17:10:54;9.68;;;6.60;;
75216;SDS011;63800;51.972;5.682;2022-11-04T17:13:19;10.80;;;7.15;;
75216;SDS011;63800;51.972;5.682;2022-11-04T17:15:45;9.38;;;6.43;;
75216;SDS011;63800;51.972;5.682;2022-11-04T17:18:13;8.43;;;6.68;;
75216;SDS011;63800;51.972;5.682;2022-11-04T17:20:41;10.82;;;7.25;;
75216;SDS011;63800;51.972;5.682;2022-11-04T17:23:13;8.77;;;6.68;;
75216;SDS011;63800;51.972;5.682;2022-11-04T17:25:40;10.68;;;7.25;;
75216;SDS011;63800;51.972;5.682;2022-11-04T17:28:06;8.50;;;5.75;;
75216;SDS011;63800;51.972;5.682;2022-11-04T17:30:31;7.72;;;5.82;;
75216;SDS011;63800;51.972;5.682;2022-11-04T17:32:57;7.60;;;5.57;;
75216;SDS011;63800;51.972;5.682;2022-11-04T17:35:22;7.40;;;5.03;;
75216;SDS011;63800;51.972;5.682;2022-11-04T17:37:52;9.52;;;7.03;;
75216;SDS011;63800;51.972;5.682;2022-11-04T17:40:18;10.30;;;7.30;;
75216;SDS011;63800;51.972;5.682;2022-11-04T17:42:45;10.27;;;7.45;;
75216;SDS011;63800;51.972;5.682;2022-11-04T17:45:30;9.85;;;7.25;;
75216;SDS011;63800;51.972;5.682;2022-11-04T17:47:56;11.38;;;5.45;;
75216;SDS011;63800;51.972;5.682;2022-11-04T17:50:21;8.00;;;5.50;;
75216;SDS011;63800;51.972;5.682;2022-11-04T17:52:47;9.13;;;6.13;;
75216;SDS011;63800;51.972;5.682;2022-11-04T17:55:12;10.18;;;6.18;;
75216;SDS011;63800;51.972;5.682;2022-11-04T17:57:38;7.53;;;6.05;;